createdAt,value
2019-02-06T00:00:27.183Z,78.94
2019-02-06T00:01:26.628Z,78.97
2019-02-06T00:02:26.067Z,79.19
2019-02-06T00:03:26.215Z,79.03
2019-02-06T00:04:25.911Z,79.19
2019-02-06T00:05:25.797Z,79.06
2019-02-06T00:06:26.780Z,79.21
2019-02-06T00:07:25.904Z,79.29
2019-02-06T00:08:26.497Z,79.18
2019-02-06T00:09:26.186Z,78.95
2019-02-06T00:10:26.323Z,79.13
2019-02-06T00:11:25.697Z,78.98
2019-02-06T00:12:26.026Z,78.9
2019-02-06T00:13:26.319Z,79.04
2019-02-06T00:14:26.152Z,79.03
2019-02-06T00:15:26.488Z,78.99
2019-02-06T00:16:25.914Z,78.88
2019-02-06T00:17:26.431Z,78.85
2019-02-06T00:18:26.229Z,78.7
2019-02-06T00:19:25.828Z,78.46
2019-02-06T00:20:26.133Z,78.56
2019-02-06T00:21:27.147Z,78.72
2019-02-06T00:22:26.052Z,78.57
2019-02-06T00:23:26.354Z,78.61
2019-02-06T00:24:27.079Z,78.61
2019-02-06T00:25:27.622Z,78.61
2019-02-06T00:26:26.152Z,78.55
2019-02-06T00:27:26.073Z,78.75
2019-02-06T00:28:25.836Z,78.55
2019-02-06T00:29:25.959Z,78.69
2019-02-06T00:30:25.807Z,78.65
2019-02-06T00:31:25.794Z,78.58
2019-02-06T00:32:26.099Z,78.61
2019-02-06T00:33:26.098Z,78.5
2019-02-06T00:34:25.875Z,78.61
2019-02-06T00:35:26.474Z,78.55
2019-02-06T00:36:26.108Z,78.57
2019-02-06T00:37:25.757Z,78.49
2019-02-06T00:38:26.044Z,78.65
2019-02-06T00:39:26.802Z,78.68
2019-02-06T00:40:26.059Z,78.64
2019-02-06T00:41:26.061Z,78.73
2019-02-06T00:42:26.873Z,78.64
2019-02-06T00:43:25.878Z,78.76
2019-02-06T00:44:26.682Z,78.7
2019-02-06T00:45:25.726Z,78.67
2019-02-06T00:46:26.122Z,78.73
2019-02-06T00:47:25.770Z,78.54
2019-02-06T00:48:25.745Z,78.64
2019-02-06T00:49:25.758Z,78.71
2019-02-06T00:50:25.768Z,78.45
2019-02-06T00:51:26.001Z,78.62
2019-02-06T00:52:27.145Z,78.69
2019-02-06T00:53:25.948Z,78.7
2019-02-06T00:54:26.030Z,78.63
2019-02-06T00:55:25.702Z,78.8
2019-02-06T00:56:25.715Z,78.63
2019-02-06T00:57:25.901Z,78.83
2019-02-06T00:58:26.062Z,78.8
2019-02-06T00:59:26.061Z,78.79
2019-02-06T01:00:25.729Z,78.86
2019-02-06T01:01:25.699Z,78.98
2019-02-06T01:02:26.295Z,79.05
2019-02-06T01:03:25.791Z,79.03
2019-02-06T01:04:25.852Z,79.13
2019-02-06T01:05:39.033Z,79.09
2019-02-06T01:06:25.677Z,79.12
2019-02-06T01:07:26.936Z,79.23
2019-02-06T01:08:26.019Z,79.04
2019-02-06T01:09:25.676Z,79.06
2019-02-06T01:10:25.685Z,79.08
2019-02-06T01:11:25.787Z,79.09
2019-02-06T01:12:26.364Z,79.05
2019-02-06T01:13:25.682Z,79.26
2019-02-06T01:14:25.802Z,79.19
2019-02-06T01:15:26.988Z,79.44
2019-02-06T01:16:25.769Z,79.42
2019-02-06T01:17:26.202Z,79.43
2019-02-06T01:18:26.824Z,79.47
2019-02-06T01:19:26.410Z,79.47
2019-02-06T01:20:25.729Z,79.56
2019-02-06T01:21:25.800Z,79.59
2019-02-06T01:22:26.934Z,79.64
2019-02-06T01:23:26.430Z,79.73
2019-02-06T01:24:25.665Z,79.81
2019-02-06T01:25:26.138Z,79.68
2019-02-06T01:26:25.771Z,79.64
2019-02-06T01:27:25.679Z,79.68
2019-02-06T01:28:26.160Z,79.77
2019-02-06T01:29:26.162Z,79.8
2019-02-06T01:30:27.458Z,79.78
2019-02-06T01:31:25.807Z,79.86
2019-02-06T01:32:25.647Z,79.84
2019-02-06T01:33:25.660Z,80.08
2019-02-06T01:34:26.053Z,79.93
2019-02-06T01:35:25.806Z,80.05
2019-02-06T01:36:26.117Z,80.05
2019-02-06T01:37:26.621Z,80.15
2019-02-06T01:38:25.670Z,80.2
2019-02-06T01:39:26.019Z,80.16
2019-02-06T01:40:25.678Z,80.24
2019-02-06T01:41:25.749Z,80.23
2019-02-06T01:42:25.631Z,80.19
2019-02-06T01:43:26.048Z,80.4
2019-02-06T01:44:26.058Z,80.35
2019-02-06T01:45:27.084Z,80.32
2019-02-06T01:46:25.792Z,80.53
2019-02-06T01:47:25.831Z,80.42
2019-02-06T01:48:25.984Z,80.5
2019-02-06T01:49:25.829Z,80.58
2019-02-06T01:50:26.164Z,80.56
2019-02-06T01:51:25.916Z,80.4
2019-02-06T01:52:26.311Z,80.55
2019-02-06T01:53:25.889Z,80.56
2019-02-06T01:54:25.808Z,80.7
2019-02-06T01:55:26.042Z,80.7
2019-02-06T01:56:25.623Z,80.68
2019-02-06T01:57:25.946Z,80.58
2019-02-06T01:58:26.263Z,80.7
2019-02-06T01:59:25.663Z,80.73
2019-02-06T02:00:26.977Z,80.87
2019-02-06T02:01:25.714Z,80.57
2019-02-06T02:02:25.662Z,80.78
2019-02-06T02:03:25.600Z,80.65
2019-02-06T02:04:25.880Z,80.59
2019-02-06T02:05:25.722Z,80.74
2019-02-06T02:06:25.590Z,80.68
2019-02-06T02:07:26.769Z,80.83
2019-02-06T02:08:25.842Z,80.74
2019-02-06T02:09:25.642Z,80.91
2019-02-06T02:10:26.030Z,81.2
2019-02-06T02:11:25.683Z,80.98
2019-02-06T02:12:25.706Z,80.95
2019-02-06T02:13:25.799Z,80.81
2019-02-06T02:14:26.053Z,80.9
2019-02-06T02:15:26.780Z,80.66
2019-02-06T02:16:25.583Z,80.56
2019-02-06T02:17:25.683Z,80.91
2019-02-06T02:18:25.593Z,80.69
2019-02-06T02:19:25.588Z,80.79
2019-02-06T02:20:25.893Z,80.63
2019-02-06T02:21:25.987Z,80.71
2019-02-06T02:22:25.670Z,80.68
2019-02-06T02:23:26.616Z,80.43
2019-02-06T02:24:25.606Z,80.61
2019-02-06T02:25:25.569Z,80.49
2019-02-06T02:26:25.928Z,80.42
2019-02-06T02:27:25.620Z,80.37
2019-02-06T02:28:25.931Z,80.63
2019-02-06T02:29:25.916Z,80.26
2019-02-06T02:30:25.771Z,80.38
2019-02-06T02:31:25.705Z,80.54
2019-02-06T02:32:25.865Z,80.42
2019-02-06T02:33:25.597Z,80.59
2019-02-06T02:34:25.771Z,80.31
2019-02-06T02:35:25.569Z,80.47
2019-02-06T02:36:25.591Z,80.14
2019-02-06T02:37:25.599Z,80.28
2019-02-06T02:38:26.243Z,80.41
2019-02-06T02:39:25.557Z,80.52
2019-02-06T02:40:25.603Z,80.39
2019-02-06T02:41:25.650Z,80.36
2019-02-06T02:42:25.576Z,80.27
2019-02-06T02:43:25.558Z,80.37
2019-02-06T02:44:25.605Z,80.12
2019-02-06T02:45:25.597Z,80.18
2019-02-06T02:46:26.459Z,80.39
2019-02-06T02:47:25.578Z,80.26
2019-02-06T02:48:25.551Z,80.39
2019-02-06T02:49:25.633Z,80.33
2019-02-06T02:50:25.615Z,80.25
2019-02-06T02:51:25.627Z,80.31
2019-02-06T02:52:25.657Z,80.26
2019-02-06T02:53:25.519Z,80.48
2019-02-06T02:54:25.608Z,80.56
2019-02-06T02:55:25.807Z,80.35
2019-02-06T02:56:25.548Z,80.37
2019-02-06T02:57:25.577Z,80.49
2019-02-06T02:58:25.549Z,80.51
2019-02-06T02:59:25.647Z,80.44
2019-02-06T03:00:25.546Z,80.47
2019-02-06T03:01:26.353Z,80.36
2019-02-06T03:02:25.852Z,80.45
2019-02-06T03:03:25.562Z,80.33
2019-02-06T03:04:25.618Z,80.38
2019-02-06T03:05:25.671Z,80.27
2019-02-06T03:06:28.883Z,80.55
2019-02-06T03:07:25.763Z,80.58
2019-02-06T03:08:25.505Z,80.62
2019-02-06T03:09:26.890Z,80.56
2019-02-06T03:10:25.609Z,80.57
2019-02-06T03:11:25.577Z,80.48
2019-02-06T03:12:25.514Z,80.46
2019-02-06T03:13:25.572Z,80.49
2019-02-06T03:14:25.789Z,80.48
2019-02-06T03:15:25.854Z,80.55
2019-02-06T03:16:25.754Z,80.52
2019-02-06T03:17:25.864Z,80.47
2019-02-06T03:18:25.586Z,80.59
2019-02-06T03:19:25.515Z,80.63
2019-02-06T03:20:25.567Z,80.73
2019-02-06T03:21:25.616Z,80.74
2019-02-06T03:22:25.807Z,80.6
2019-02-06T03:23:25.501Z,80.84
2019-02-06T03:24:26.300Z,80.77
2019-02-06T03:25:25.595Z,80.77
2019-02-06T03:26:25.473Z,80.96
2019-02-06T03:27:25.557Z,80.71
2019-02-06T03:28:25.536Z,80.74
2019-02-06T03:29:25.730Z,80.9
2019-02-06T03:30:26.275Z,80.88
2019-02-06T03:31:25.689Z,80.92
2019-02-06T03:32:27.173Z,81.04
2019-02-06T03:33:25.504Z,81.03
2019-02-06T03:34:25.481Z,81.19
2019-02-06T03:35:26.285Z,80.96
2019-02-06T03:36:25.489Z,80.88
2019-02-06T03:37:25.523Z,81.06
2019-02-06T03:38:26.098Z,81.15
2019-02-06T03:39:25.602Z,81.16
2019-02-06T03:40:25.484Z,81.19
2019-02-06T03:41:25.611Z,81.24
2019-02-06T03:42:25.735Z,81.36
2019-02-06T03:43:25.745Z,81.48
2019-02-06T03:44:25.824Z,81.52
2019-02-06T03:45:25.590Z,81.47
2019-02-06T03:46:25.523Z,81.39
2019-02-06T03:47:26.799Z,81.82
2019-02-06T03:48:25.565Z,81.94
2019-02-06T03:49:25.515Z,81.93
2019-02-06T03:50:25.493Z,81.75
2019-02-06T03:51:25.649Z,81.9
2019-02-06T03:52:25.582Z,81.77
2019-02-06T03:53:25.450Z,81.8
2019-02-06T03:54:25.784Z,81.79
2019-02-06T03:55:25.746Z,82.23
2019-02-06T03:56:25.450Z,81.99
2019-02-06T03:57:25.480Z,81.97
2019-02-06T03:58:25.622Z,81.9
2019-02-06T03:59:25.949Z,81.79
2019-02-06T04:00:25.722Z,81.63
2019-02-06T04:01:25.422Z,81.79
2019-02-06T04:02:26.335Z,81.39
2019-02-06T04:03:25.454Z,81.5
2019-02-06T04:04:25.639Z,81.61
2019-02-06T04:05:25.879Z,81.48
2019-02-06T04:06:25.527Z,81.51
2019-02-06T04:07:25.666Z,81.53
2019-02-06T04:08:25.883Z,81.63
2019-02-06T04:09:25.520Z,81.75
2019-02-06T04:10:26.807Z,81.64
2019-02-06T04:11:25.611Z,81.53
2019-02-06T04:12:25.511Z,81.72
2019-02-06T04:13:25.567Z,81.73
2019-02-06T04:14:25.546Z,81.68
2019-02-06T04:15:25.448Z,81.88
2019-02-06T04:16:25.508Z,81.74
2019-02-06T04:17:25.545Z,81.6
2019-02-06T04:18:25.502Z,82.04
2019-02-06T04:19:25.414Z,82.12
2019-02-06T04:20:25.527Z,82.02
2019-02-06T04:21:25.681Z,82.05
2019-02-06T04:22:25.434Z,81.75
2019-02-06T04:23:25.417Z,81.99
2019-02-06T04:24:25.408Z,81.8
2019-02-06T04:25:26.599Z,81.69
2019-02-06T04:26:25.512Z,81.45
2019-02-06T04:27:25.431Z,81.73
2019-02-06T04:28:25.550Z,81.67
2019-02-06T04:29:25.387Z,81.65
2019-02-06T04:30:25.491Z,81.45
2019-02-06T04:31:25.549Z,81.7
2019-02-06T04:32:25.471Z,81.62
2019-02-06T04:33:26.856Z,81.61
2019-02-06T04:34:25.520Z,81.63
2019-02-06T04:35:25.465Z,81.35
2019-02-06T04:36:25.371Z,81.44
2019-02-06T04:37:25.477Z,81.33
2019-02-06T04:38:25.405Z,81.53
2019-02-06T04:39:25.526Z,81.62
2019-02-06T04:40:25.356Z,81.53
2019-02-06T04:41:25.440Z,81.62
2019-02-06T04:42:25.553Z,81.5
2019-02-06T04:43:25.379Z,81.28
2019-02-06T04:44:25.612Z,81.6
2019-02-06T04:45:25.365Z,81.52
2019-02-06T04:46:25.966Z,81.4
2019-02-06T04:47:25.377Z,81.31
2019-02-06T04:48:26.361Z,81.66
2019-02-06T04:49:25.630Z,81.76
2019-02-06T04:50:25.614Z,82.01
2019-02-06T04:51:25.711Z,81.79
2019-02-06T04:52:25.412Z,81.68
2019-02-06T04:53:25.402Z,81.77
2019-02-06T04:54:25.795Z,81.89
2019-02-06T04:55:25.699Z,81.77
2019-02-06T04:56:27.419Z,81.56
2019-02-06T04:57:25.455Z,81.82
2019-02-06T04:58:25.519Z,82.06
2019-02-06T04:59:25.811Z,81.99
2019-02-06T05:00:25.444Z,81.98
2019-02-06T05:01:26.449Z,82.12
2019-02-06T05:02:25.860Z,82.16
2019-02-06T05:03:26.303Z,82.12
2019-02-06T05:04:25.469Z,82.15
2019-02-06T05:05:25.524Z,81.96
2019-02-06T05:06:25.361Z,82.05
2019-02-06T05:07:25.655Z,82.47
2019-02-06T05:08:25.491Z,82.47
2019-02-06T05:09:25.746Z,82.87
2019-02-06T05:10:25.334Z,82.37
2019-02-06T05:11:27.209Z,82.04
2019-02-06T05:12:25.608Z,81.83
2019-02-06T05:13:25.426Z,81.78
2019-02-06T05:14:25.493Z,81.88
2019-02-06T05:15:25.919Z,81.63
2019-02-06T05:16:25.611Z,81.67
2019-02-06T05:17:25.446Z,81.65
2019-02-06T05:18:25.572Z,81.64
2019-02-06T05:19:27.166Z,81.77
2019-02-06T05:20:25.760Z,81.57
2019-02-06T05:21:25.431Z,81.5
2019-02-06T05:22:25.321Z,81.66
2019-02-06T05:23:25.656Z,81.66
2019-02-06T05:24:25.662Z,81.35
2019-02-06T05:25:25.474Z,81.59
2019-02-06T05:26:26.490Z,81.64
2019-02-06T05:27:25.585Z,81.66
2019-02-06T05:28:25.439Z,81.8
2019-02-06T05:29:25.361Z,81.63
2019-02-06T05:30:25.296Z,81.73
2019-02-06T05:31:25.604Z,81.67
2019-02-06T05:32:25.510Z,81.71
2019-02-06T05:33:25.611Z,81.84
2019-02-06T05:34:25.464Z,82.07
2019-02-06T05:35:25.635Z,82.13
2019-02-06T05:36:25.642Z,82.02
2019-02-06T05:37:32.615Z,81.91
2019-02-06T05:38:25.506Z,82
2019-02-06T05:39:25.565Z,81.91
2019-02-06T05:40:25.674Z,82.11
2019-02-06T05:41:26.383Z,82.14
2019-02-06T05:42:25.586Z,82.01
2019-02-06T05:43:25.505Z,81.76
2019-02-06T05:44:25.419Z,81.91
2019-02-06T05:45:25.313Z,81.89
2019-02-06T05:46:25.651Z,81.64
2019-02-06T05:47:25.344Z,81.56
2019-02-06T05:48:25.332Z,81.52
2019-02-06T05:49:25.302Z,81.62
2019-02-06T05:50:25.476Z,81.5
2019-02-06T05:51:25.271Z,82.01
2019-02-06T05:52:25.334Z,81.94
2019-02-06T05:53:25.266Z,81.72
2019-02-06T05:54:25.289Z,82.14
2019-02-06T05:55:25.652Z,81.8
2019-02-06T05:56:26.789Z,81.84
2019-02-06T05:57:25.601Z,82.11
2019-02-06T05:58:25.321Z,81.79
2019-02-06T05:59:25.274Z,81.85
2019-02-06T06:00:25.237Z,81.79
2019-02-06T06:01:25.350Z,81.76
2019-02-06T06:02:25.517Z,81.55
2019-02-06T06:03:25.231Z,81.54
2019-02-06T06:04:25.278Z,81.63
2019-02-06T06:05:25.441Z,81.79
2019-02-06T06:06:25.242Z,81.8
2019-02-06T06:07:25.235Z,81.87
2019-02-06T06:08:25.247Z,81.61
2019-02-06T06:09:25.295Z,81.9
2019-02-06T06:10:25.276Z,81.8
2019-02-06T06:11:26.449Z,81.93
2019-02-06T06:12:25.235Z,81.98
2019-02-06T06:13:25.254Z,82.12
2019-02-06T06:14:25.427Z,82.22
2019-02-06T06:15:25.248Z,82.08
2019-02-06T06:16:25.272Z,82.42
2019-02-06T06:17:25.283Z,82.64
2019-02-06T06:18:25.712Z,82.23
2019-02-06T06:19:25.600Z,81.83
2019-02-06T06:20:25.514Z,81.89
2019-02-06T06:21:25.256Z,81.64
2019-02-06T06:22:25.208Z,81.88
2019-02-06T06:23:25.951Z,81.93
2019-02-06T06:24:25.671Z,82.05
2019-02-06T06:25:25.587Z,81.94
2019-02-06T06:26:26.679Z,81.96
2019-02-06T06:27:25.268Z,82.09
2019-02-06T06:28:25.475Z,82.28
2019-02-06T06:29:25.337Z,82.37
2019-02-06T06:30:25.235Z,82.3
2019-02-06T06:31:25.207Z,82.44
2019-02-06T06:32:25.352Z,82.32
2019-02-06T06:33:26.110Z,82.22
2019-02-06T06:34:25.533Z,82.11
2019-02-06T06:35:25.519Z,82.35
2019-02-06T06:36:25.245Z,82.01
2019-02-06T06:37:25.216Z,82.02
2019-02-06T06:38:25.366Z,82.13
2019-02-06T06:39:25.336Z,82.21
2019-02-06T06:40:25.402Z,82.19
2019-02-06T06:41:26.574Z,82.1
2019-02-06T06:42:25.203Z,81.96
2019-02-06T06:43:25.392Z,81.98
2019-02-06T06:44:25.249Z,81.93
2019-02-06T06:45:25.234Z,81.96
2019-02-06T06:46:27.056Z,82.21
2019-02-06T06:47:25.255Z,81.95
2019-02-06T06:48:25.312Z,81.95
2019-02-06T06:49:25.234Z,81.77
2019-02-06T06:50:25.518Z,81.79
2019-02-06T06:51:25.519Z,81.41
2019-02-06T06:52:27.030Z,81.41
2019-02-06T06:53:25.271Z,81.66
2019-02-06T06:54:25.641Z,81.58
2019-02-06T06:55:25.654Z,81.36
2019-02-06T06:56:26.057Z,81.29
2019-02-06T06:57:25.146Z,81.71
2019-02-06T06:58:25.451Z,81.48
2019-02-06T06:59:25.244Z,81.34
2019-02-06T07:00:25.813Z,81.62
2019-02-06T07:01:25.243Z,81.65
2019-02-06T07:02:25.381Z,81.59
2019-02-06T07:03:25.703Z,81.79
2019-02-06T07:04:26.723Z,81.74
2019-02-06T07:05:25.410Z,81.88
2019-02-06T07:06:25.216Z,81.67
2019-02-06T07:07:25.623Z,81.45
2019-02-06T07:08:25.219Z,81.54
2019-02-06T07:09:25.194Z,81.54
2019-02-06T07:10:25.350Z,81.57
2019-02-06T07:11:25.497Z,81.74
2019-02-06T07:12:26.778Z,81.84
2019-02-06T07:13:25.560Z,81.59
2019-02-06T07:14:25.192Z,81.37
2019-02-06T07:15:25.585Z,81.32
2019-02-06T07:16:25.478Z,81.18
2019-02-06T07:17:27.007Z,81.18
2019-02-06T07:18:25.389Z,81.29
2019-02-06T07:19:25.890Z,81.46
2019-02-06T07:20:25.119Z,81.6
2019-02-06T07:21:25.161Z,81.52
2019-02-06T07:22:25.309Z,81.48
2019-02-06T07:23:26.644Z,81.33
2019-02-06T07:24:25.125Z,81.49
2019-02-06T07:25:25.128Z,81.47
2019-02-06T07:26:25.441Z,81.51
2019-02-06T07:27:25.953Z,81.63
2019-02-06T07:28:25.126Z,81.7
2019-02-06T07:29:25.127Z,81.83
2019-02-06T07:30:25.116Z,81.84
2019-02-06T07:31:25.110Z,81.77
2019-02-06T07:32:25.252Z,81.83
2019-02-06T07:33:26.975Z,81.88
2019-02-06T07:34:25.462Z,81.8
2019-02-06T07:35:25.105Z,81.91
2019-02-06T07:36:25.919Z,81.57
2019-02-06T07:37:25.154Z,81.75
2019-02-06T07:38:25.442Z,81.83
2019-02-06T07:39:25.277Z,81.66
2019-02-06T07:40:25.431Z,81.94
2019-02-06T07:41:25.340Z,81.59
2019-02-06T07:42:26.257Z,81.56
2019-02-06T07:43:25.241Z,81.68
2019-02-06T07:44:25.089Z,81.62
2019-02-06T07:45:25.084Z,81.54
2019-02-06T07:46:25.222Z,81.39
2019-02-06T07:47:25.093Z,81.36
2019-02-06T07:48:25.129Z,81.24
2019-02-06T07:49:25.085Z,81.34
2019-02-06T07:50:25.901Z,81.42
2019-02-06T07:51:25.494Z,81.22
2019-02-06T07:52:25.108Z,81.43
2019-02-06T07:53:25.081Z,81.46
2019-02-06T07:54:25.130Z,81.34
2019-02-06T07:55:25.257Z,81.41
2019-02-06T07:56:25.114Z,81.15
2019-02-06T07:57:25.836Z,81.25
2019-02-06T07:58:25.092Z,81.31
2019-02-06T07:59:25.099Z,81.35
2019-02-06T08:00:25.106Z,81.19
2019-02-06T08:01:25.083Z,81.24
2019-02-06T08:02:25.367Z,81.12
2019-02-06T08:03:25.068Z,81.14
2019-02-06T08:04:25.689Z,81.25
2019-02-06T08:05:26.304Z,81.13
2019-02-06T08:06:26.719Z,81.24
2019-02-06T08:07:25.092Z,81.35
2019-02-06T08:08:36.594Z,81.12
2019-02-06T08:09:25.040Z,81.23
2019-02-06T08:10:25.156Z,81.22
2019-02-06T08:11:25.048Z,81.22
2019-02-06T08:12:25.643Z,81.12
2019-02-06T08:13:25.395Z,81.25
2019-02-06T08:14:26.908Z,81.28
2019-02-06T08:15:25.079Z,81.14
2019-02-06T08:16:25.457Z,81.13
2019-02-06T08:17:25.572Z,81.3
2019-02-06T08:18:25.587Z,81.33
2019-02-06T08:19:25.299Z,81.24
2019-02-06T08:20:27.939Z,81.36
2019-02-06T08:21:25.155Z,81.27
2019-02-06T08:22:25.382Z,81.25
2019-02-06T08:23:25.113Z,81.24
2019-02-06T08:24:25.510Z,81.24
2019-02-06T08:25:25.286Z,81.12
2019-02-06T08:26:25.328Z,81.17
2019-02-06T08:27:26.721Z,81.19
2019-02-06T08:28:26.563Z,81.14
2019-02-06T08:29:25.666Z,81.09
2019-02-06T08:30:25.447Z,81.1
2019-02-06T08:31:25.093Z,81.05
2019-02-06T08:32:25.225Z,80.96
2019-02-06T08:33:25.363Z,81
2019-02-06T08:34:26.879Z,80.74
2019-02-06T08:35:25.333Z,80.69
2019-02-06T08:36:25.262Z,80.82
2019-02-06T08:37:25.019Z,80.86
2019-02-06T08:38:25.087Z,80.88
2019-02-06T08:39:26.225Z,80.91
2019-02-06T08:40:25.482Z,80.85
2019-02-06T08:41:25.008Z,80.72
2019-02-06T08:42:25.528Z,80.76
2019-02-06T08:43:25.839Z,80.68
2019-02-06T08:44:25.344Z,80.52
2019-02-06T08:45:25.044Z,80.42
2019-02-06T08:46:25.271Z,80.41
2019-02-06T08:47:25.797Z,80.3
2019-02-06T08:48:24.997Z,80.07
2019-02-06T08:49:25.110Z,79.9
2019-02-06T08:50:25.047Z,79.66
2019-02-06T08:51:26.093Z,79.67
2019-02-06T08:52:24.997Z,79.68
2019-02-06T08:53:24.991Z,79.54
2019-02-06T08:54:25.246Z,79.63
2019-02-06T08:55:25.307Z,79.7
2019-02-06T08:56:25.315Z,79.66
2019-02-06T08:57:25.334Z,79.44
2019-02-06T08:58:25.936Z,79.44
2019-02-06T08:59:25.332Z,79.35
2019-02-06T09:00:25.452Z,79.51
2019-02-06T09:01:25.212Z,80
2019-02-06T09:02:25.461Z,79.49
2019-02-06T09:03:25.161Z,79.32
2019-02-06T09:04:25.035Z,79.31
2019-02-06T09:05:25.244Z,79.45
2019-02-06T09:06:26.295Z,79.29
2019-02-06T09:07:25.127Z,79.24
2019-02-06T09:08:24.996Z,79.05
2019-02-06T09:09:25.519Z,78.96
2019-02-06T09:10:25.007Z,78.93
2019-02-06T09:11:25.229Z,79.18
2019-02-06T09:12:24.970Z,79.06
2019-02-06T09:13:25.095Z,78.96
2019-02-06T09:14:25.099Z,78.75
2019-02-06T09:15:27.837Z,78.52
2019-02-06T09:16:25.240Z,78.62
2019-02-06T09:17:24.986Z,78.64
2019-02-06T09:18:25.260Z,78.59
2019-02-06T09:19:25.405Z,78.79
2019-02-06T09:20:25.103Z,78.6
2019-02-06T09:21:25.982Z,78.69
2019-02-06T09:22:26.822Z,78.4
2019-02-06T09:23:24.943Z,78.32
2019-02-06T09:24:25.209Z,78.31
2019-02-06T09:25:25.216Z,78.54
2019-02-06T09:26:25.196Z,78.47
2019-02-06T09:27:25.047Z,78.37
2019-02-06T09:28:25.030Z,78.32
2019-02-06T09:29:26.037Z,78.19
2019-02-06T09:30:25.019Z,78.22
2019-02-06T09:31:24.980Z,78.1
2019-02-06T09:32:25.095Z,78.17
2019-02-06T09:33:24.998Z,78.12
2019-02-06T09:34:25.043Z,77.91
2019-02-06T09:35:25.054Z,77.88
2019-02-06T09:36:25.451Z,78.18
2019-02-06T09:37:24.994Z,78.09
2019-02-06T09:38:25.084Z,78.17
2019-02-06T09:39:24.968Z,77.86
2019-02-06T09:40:25.012Z,78.07
2019-02-06T09:41:24.977Z,78.04
2019-02-06T09:42:25.058Z,77.84
2019-02-06T09:43:27.727Z,77.6
2019-02-06T09:44:26.236Z,77.8
2019-02-06T09:45:25.026Z,77.95
2019-02-06T09:46:24.974Z,77.53
2019-02-06T09:47:24.975Z,77.7
2019-02-06T09:48:24.905Z,77.62
2019-02-06T09:49:25.191Z,77.59
2019-02-06T09:50:25.060Z,77.37
2019-02-06T09:51:25.385Z,77.42
2019-02-06T09:52:29.874Z,77.44
2019-02-06T09:53:24.937Z,77.4
2019-02-06T09:54:25.740Z,77.48
2019-02-06T09:55:25.026Z,77.24
2019-02-06T09:56:24.975Z,77.34
2019-02-06T09:57:25.062Z,77.29
2019-02-06T09:58:25.284Z,77.33
2019-02-06T09:59:26.437Z,77.48
2019-02-06T10:00:25.330Z,77.08
2019-02-06T10:01:25.784Z,77.05
2019-02-06T10:02:26.056Z,77.33
2019-02-06T10:03:25.136Z,77.29
2019-02-06T10:04:25.134Z,77.06
2019-02-06T10:05:24.900Z,77.27
2019-02-06T10:06:24.908Z,77.29
2019-02-06T10:07:24.903Z,77.28
2019-02-06T10:08:25.167Z,76.69
2019-02-06T10:09:26.006Z,76.95
2019-02-06T10:10:24.975Z,77.1
2019-02-06T10:11:25.086Z,77.34
2019-02-06T10:12:24.877Z,77.21
2019-02-06T10:13:25.068Z,77.22
2019-02-06T10:14:26.024Z,77.02
2019-02-06T10:15:24.997Z,77.31
2019-02-06T10:16:24.874Z,77.3
2019-02-06T10:17:24.867Z,77.06
2019-02-06T10:18:26.734Z,76.93
2019-02-06T10:19:25.192Z,76.99
2019-02-06T10:20:24.984Z,76.73
2019-02-06T10:21:25.044Z,76.12
2019-02-06T10:22:26.180Z,76.7
2019-02-06T10:23:24.863Z,76.71
2019-02-06T10:24:25.140Z,76.57
2019-02-06T10:25:25.175Z,76.54
2019-02-06T10:26:25.123Z,76.27
2019-02-06T10:27:25.094Z,76.69
2019-02-06T10:28:26.124Z,76.85
2019-02-06T10:29:24.943Z,76.89
2019-02-06T10:30:25.143Z,76.7
2019-02-06T10:31:25.139Z,76.3
2019-02-06T10:32:25.269Z,76.35
2019-02-06T10:33:25.095Z,76.32
2019-02-06T10:34:25.011Z,76.47
2019-02-06T10:35:25.136Z,76.44
2019-02-06T10:36:24.989Z,76.44
2019-02-06T10:37:25.766Z,75.98
2019-02-06T10:38:25.167Z,75.66
2019-02-06T10:39:35.101Z,76.31
2019-02-06T10:40:24.842Z,76.29
2019-02-06T10:41:25.033Z,76.1
2019-02-06T10:42:24.948Z,75.82
2019-02-06T10:43:36.100Z,75.6
2019-02-06T10:44:24.984Z,75.56
2019-02-06T10:45:25.921Z,75.37
2019-02-06T10:46:24.820Z,74.71
2019-02-06T10:47:24.857Z,74.97
2019-02-06T10:48:25.234Z,74.99
2019-02-06T10:49:25.358Z,74.92
2019-02-06T10:50:24.805Z,74.62
2019-02-06T10:51:24.969Z,74.88
2019-02-06T10:52:25.658Z,74.67
2019-02-06T10:53:24.860Z,74.72
2019-02-06T10:54:24.916Z,75.03
2019-02-06T10:55:24.807Z,74.97
2019-02-06T10:56:25.310Z,74.93
2019-02-06T10:57:24.884Z,75.04
2019-02-06T10:58:25.099Z,74.87
2019-02-06T10:59:24.826Z,74.54
2019-02-06T11:00:26.020Z,74.31
2019-02-06T11:01:25.323Z,74.13
2019-02-06T11:02:25.122Z,74.31
2019-02-06T11:03:24.946Z,74.44
2019-02-06T11:04:24.780Z,74.26
2019-02-06T11:05:24.793Z,74
2019-02-06T11:06:25.243Z,74.15
2019-02-06T11:07:25.261Z,74.17
2019-02-06T11:08:25.173Z,74.2
2019-02-06T11:09:25.403Z,73.88
2019-02-06T11:10:24.771Z,73.56
2019-02-06T11:11:24.986Z,73.32
2019-02-06T11:12:24.894Z,73.48
2019-02-06T11:13:25.082Z,74.06
2019-02-06T11:14:24.800Z,74.35
2019-02-06T11:15:26.015Z,73.8
2019-02-06T11:16:24.796Z,73.54
2019-02-06T11:17:24.775Z,73.55
2019-02-06T11:18:24.779Z,73.32
2019-02-06T11:19:24.776Z,73.41
2019-02-06T11:20:24.742Z,73.02
2019-02-06T11:21:25.245Z,73.48
2019-02-06T11:22:24.846Z,73.59
2019-02-06T11:23:25.965Z,73.21
2019-02-06T11:24:27.078Z,73.1
2019-02-06T11:25:24.792Z,73.13
2019-02-06T11:26:24.784Z,72.69
2019-02-06T11:27:24.800Z,72.85
2019-02-06T11:28:24.750Z,72.77
2019-02-06T11:29:25.198Z,72.53
2019-02-06T11:30:25.223Z,72.83
2019-02-06T11:31:24.767Z,72.16
2019-02-06T11:32:25.191Z,72.47
2019-02-06T11:33:25.121Z,72.05
2019-02-06T11:34:24.773Z,72.26
2019-02-06T11:35:24.982Z,72.33
2019-02-06T11:36:25.239Z,72.37
2019-02-06T11:37:24.767Z,71.79
2019-02-06T11:38:28.249Z,71.56
2019-02-06T11:39:25.065Z,71.81
2019-02-06T11:40:24.797Z,71.23
2019-02-06T11:41:24.944Z,71.67
2019-02-06T11:42:25.033Z,71
2019-02-06T11:43:24.725Z,71.22
2019-02-06T11:44:24.798Z,70.95
2019-02-06T11:45:25.117Z,71.17
2019-02-06T11:46:26.017Z,71.07
2019-02-06T11:47:24.835Z,71.29
2019-02-06T11:48:24.943Z,71.07
2019-02-06T11:49:24.796Z,71.12
2019-02-06T11:50:24.930Z,70.89
2019-02-06T11:51:26.577Z,70.75
2019-02-06T11:52:25.139Z,70.71
2019-02-06T11:53:26.787Z,70.91
2019-02-06T11:54:24.934Z,70.89
2019-02-06T11:55:24.865Z,71.14
2019-02-06T11:56:24.706Z,70.52
2019-02-06T11:57:25.235Z,70.57
2019-02-06T11:58:24.994Z,70.49
2019-02-06T11:59:24.977Z,70.21
2019-02-06T12:00:24.861Z,70.27
2019-02-06T12:01:26.012Z,69.98
2019-02-06T12:02:24.802Z,70.15
2019-02-06T12:03:24.775Z,70.16
2019-02-06T12:04:24.760Z,69.44
2019-02-06T12:05:25.128Z,69.68
2019-02-06T12:06:24.784Z,68.91
2019-02-06T12:07:24.713Z,69.25
2019-02-06T12:08:24.764Z,69.56
2019-02-06T12:09:26.178Z,69.13
2019-02-06T12:10:25.266Z,69.4
2019-02-06T12:11:25.170Z,69.61
2019-02-06T12:12:24.767Z,68.5
2019-02-06T12:13:24.971Z,68.36
2019-02-06T12:14:25.074Z,68.12
2019-02-06T12:15:24.994Z,68.21
2019-02-06T12:16:25.922Z,68.72
2019-02-06T12:17:24.772Z,68.71
2019-02-06T12:18:24.697Z,67.84
2019-02-06T12:19:25.721Z,68.2
2019-02-06T12:20:25.228Z,68.62
2019-02-06T12:21:24.680Z,69.14
2019-02-06T12:22:25.137Z,68.27
2019-02-06T12:23:32.724Z,68.9
2019-02-06T12:24:25.959Z,67.83
2019-02-06T12:25:25.154Z,68.52
2019-02-06T12:26:24.796Z,68.84
2019-02-06T12:27:25.067Z,67.71
2019-02-06T12:28:25.169Z,67.41
2019-02-06T12:29:25.079Z,67.47
2019-02-06T12:30:24.864Z,67.91
2019-02-06T12:31:25.394Z,67.45
2019-02-06T12:32:25.220Z,67.54
2019-02-06T12:33:24.813Z,68.15
2019-02-06T12:34:25.125Z,67.6
2019-02-06T12:35:24.678Z,67.52
2019-02-06T12:36:24.672Z,67.59
2019-02-06T12:37:24.681Z,67.49
2019-02-06T12:38:24.737Z,67.75
2019-02-06T12:39:24.651Z,68
2019-02-06T12:40:25.059Z,67.48
2019-02-06T12:41:24.800Z,67.1
2019-02-06T12:42:24.711Z,66.94
2019-02-06T12:43:24.710Z,66.18
2019-02-06T12:44:24.963Z,66.82
2019-02-06T12:45:25.756Z,66.84
2019-02-06T12:46:24.991Z,66.53
2019-02-06T12:47:27.091Z,66.52
2019-02-06T12:48:24.823Z,66.82
2019-02-06T12:49:24.650Z,66.62
2019-02-06T12:50:24.710Z,66.25
2019-02-06T12:51:24.683Z,65.2
2019-02-06T12:52:25.146Z,65.12
2019-02-06T12:53:30.044Z,65.71
2019-02-06T12:54:25.169Z,66.59
2019-02-06T12:55:24.826Z,66.25